Terminal Aerodrome Forecast
Issued by NWS

Home | Current Version | Previous Version | Text Only | Print | Product List | Glossary On
Versions: 1 2 3 4 5 6 7 8 9 10 11 12
018
FTPA31 PHFO 212334
TAFHJR
TAF
PHJR 212334Z 2200/2224 06008G14KT P6SM FEW025 BKN060
     FM220500 06005KT P6SM FEW025 SCT060
     FM222000 08008G14KT P6SM FEW025 SCT050=

USA.gov is the U.S. government's official web portal to all federal, state and local government web resources and services.